Farmer City, Illinois
Current Conditions -  °F | °C
As of 11:56 PM on Wednesday 22 Oct 2014 (Local Time) from KBMI Reporting Station
Clear Clear  
Wind Chill: 37°   Ceiling: Unl
Heat Index: 40°   Visibility: 10mi
Dew Point: 35°   Wind: 5mph
Humidity: 82%   Direction: 140°SE
Pressure: 30.26"   Gusts: NA
Location:  40.24°N, 88.64°W
Report Text: KBMI 230456Z AUTO 14004KT 10SM CLR 04/02 A3026 RMK AO2 T00440016 SLP253
Loading
Personal Weather Stations






























Interactive Weather Map
Tropical Storm Tracking
New forecast layout! Learn more

10-Day Weather Forecast

Advertisements
Track Severe Weather on mobile